Time;durP1;ratioP1;P1;durP2;ratioP2;P2;SDS_P1;SDS_P2;PMS_P1;PMS_P2;Temp;Humidity;BMP_temperature;BMP_pressure;BME280_temperature;BME280_humidity;BME280_pressure;Samples;Min_cycle;Max_cycle;Signal;HPM_P1;HPM_P2
2023/12/26 00:01:27;;;;;;;5.97;4.43;;;18.70;59.90;;;;;;5075946;28;20188;-69
2023/12/26 00:03:53;;;;;;;6.00;5.18;;;18.60;60.50;;;;;;5093251;28;20181;-69
2023/12/26 00:06:20;;;;;;;5.75;4.65;;;18.60;59.90;;;;;;5090935;28;20174;-70
2023/12/26 00:08:47;;;;;;;5.57;4.78;;;18.70;59.80;;;;;;5093369;28;20177;-69
2023/12/26 00:11:13;;;;;;;5.65;4.68;;;18.70;59.80;;;;;;5088580;28;20280;-69
2023/12/26 00:13:39;;;;;;;5.43;4.53;;;18.60;59.70;;;;;;5093346;28;20200;-69
2023/12/26 00:16:05;;;;;;;5.88;5.03;;;18.60;59.80;;;;;;5093995;28;20193;-69
2023/12/26 00:18:31;;;;;;;4.93;4.30;;;18.70;59.80;;;;;;5092943;28;20184;-69
2023/12/26 00:20:57;;;;;;;4.80;4.28;;;18.70;59.90;;;;;;5092979;28;20201;-69
2023/12/26 00:23:23;;;;;;;5.95;4.88;;;18.60;59.80;;;;;;5092841;28;20230;-69
2023/12/26 00:25:48;;;;;;;5.78;4.60;;;18.60;59.70;;;;;;5092869;28;20607;-70
2023/12/26 00:28:16;;;;;;;5.50;4.85;;;18.60;59.60;;;;;;5093884;28;20192;-70
2023/12/26 00:30:42;;;;;;;5.05;4.55;;;18.60;60.40;;;;;;5075940;28;20176;-70
2023/12/26 00:33:07;;;;;;;5.32;4.25;;;18.60;60.50;;;;;;5092447;28;20293;-70
2023/12/26 00:35:33;;;;;;;5.47;4.80;;;18.70;59.80;;;;;;5092500;28;20236;-70
2023/12/26 00:38:01;;;;;;;6.18;4.50;;;18.60;59.60;;;;;;5092478;28;20188;-69
2023/12/26 00:40:27;;;;;;;4.93;4.22;;;18.60;59.60;;;;;;5075414;28;20208;-69
2023/12/26 00:42:53;;;;;;;5.10;4.18;;;18.60;59.60;;;;;;5092609;28;20215;-69
2023/12/26 00:45:22;;;;;;;5.13;4.30;;;18.60;59.60;;;;;;5088836;28;20563;-69
2023/12/26 00:47:51;;;;;;;4.07;3.65;;;18.60;60.30;;;;;;5075402;28;20184;-70
2023/12/26 00:50:17;;;;;;;5.57;4.50;;;18.60;59.60;;;;;;5092088;28;20213;-69
2023/12/26 00:52:44;;;;;;;5.72;4.78;;;18.60;59.50;;;;;;5092282;28;20217;-69
2023/12/26 00:55:09;;;;;;;4.85;4.35;;;18.60;59.60;;;;;;5099754;28;20184;-69
2023/12/26 00:57:36;;;;;;;4.85;4.20;;;18.60;59.50;;;;;;5079206;28;20191;-69
2023/12/26 01:00:06;;;;;;;5.03;4.45;;;18.60;59.60;;;;;;5078714;28;20209;-69
2023/12/26 01:02:32;;;;;;;4.43;4.03;;;18.60;59.50;;;;;;5091911;28;20205;-69
2023/12/26 01:04:58;;;;;;;4.60;4.15;;;18.60;59.50;;;;;;5095058;28;20177;-69
2023/12/26 01:07:24;;;;;;;5.25;4.20;;;18.60;59.60;;;;;;5077290;28;20185;-70
2023/12/26 01:09:50;;;;;;;4.32;3.72;;;18.60;59.60;;;;;;5081208;28;20185;-69
2023/12/26 01:12:16;;;;;;;4.28;3.80;;;18.60;59.50;;;;;;5091159;28;20570;-69
2023/12/26 01:14:42;;;;;;;4.65;3.90;;;18.60;59.50;;;;;;5099063;28;20187;-70
2023/12/26 01:17:08;;;;;;;5.35;4.03;;;18.60;59.50;;;;;;5099975;28;20176;-69
2023/12/26 01:19:33;;;;;;;5.40;4.60;;;18.50;59.60;;;;;;5094851;28;20276;-69
2023/12/26 01:21:59;;;;;;;6.10;5.43;;;18.60;59.50;;;;;;5110544;28;20196;-70
2023/12/26 01:24:26;;;;;;;5.47;4.38;;;18.50;59.50;;;;;;5083159;28;20181;-68
2023/12/26 01:26:51;;;;;;;4.93;4.38;;;18.60;59.60;;;;;;5074888;28;20207;-69
2023/12/26 01:29:17;;;;;;;4.53;4.10;;;18.60;59.50;;;;;;5106556;28;20172;-69
2023/12/26 01:31:43;;;;;;;4.80;4.30;;;18.60;59.50;;;;;;5125872;27;20224;-70
2023/12/26 01:34:09;;;;;;;4.57;3.90;;;18.60;59.50;;;;;;5100892;28;20557;-70
2023/12/26 01:36:35;;;;;;;5.32;4.60;;;18.60;59.50;;;;;;5091541;28;20190;-70
2023/12/26 01:39:01;;;;;;;5.03;4.53;;;18.50;59.40;;;;;;5101856;28;20180;-69
2023/12/26 01:41:27;;;;;;;4.55;4.05;;;18.60;59.50;;;;;;5105616;28;20596;-70
2023/12/26 01:43:52;;;;;;;4.65;3.90;;;18.50;59.40;;;;;;5086000;28;20176;-70
2023/12/26 01:46:20;;;;;;;4.38;3.90;;;18.60;59.50;;;;;;5105335;28;20180;-70
2023/12/26 01:48:52;;;;;;;4.90;3.90;;;18.50;59.40;;;;;;5074525;28;20207;-69
2023/12/26 01:51:22;;;;;;;4.38;3.60;;;18.60;59.50;;;;;;5074175;28;20177;-69
2023/12/26 01:53:50;;;;;;;4.40;3.88;;;18.60;59.50;;;;;;5074222;28;20169;-69
2023/12/26 01:56:16;;;;;;;3.78;3.17;;;18.50;59.40;;;;;;5081173;28;20243;-69
2023/12/26 01:58:48;;;;;;;4.18;3.60;;;18.60;59.50;;;;;;5085930;28;20263;-69
2023/12/26 02:01:15;;;;;;;4.18;3.30;;;18.60;59.50;;;;;;5107715;28;20204;-69
2023/12/26 02:03:41;;;;;;;4.68;3.67;;;18.50;59.40;;;;;;5092922;28;20176;-70
2023/12/26 02:06:09;;;;;;;3.70;3.35;;;18.60;59.50;;;;;;5107852;28;20195;-70
2023/12/26 02:08:40;;;;;;;3.78;3.20;;;18.50;59.40;;;;;;5100241;28;20187;-69
2023/12/26 02:11:06;;;;;;;3.53;3.05;;;18.50;59.40;;;;;;5103112;28;20176;-69
2023/12/26 02:13:34;;;;;;;3.47;3.17;;;18.50;59.40;;;;;;5103367;28;20311;-69
2023/12/26 02:16:08;;;;;;;3.45;3.15;;;18.50;59.40;;;;;;5094622;28;20185;-69
2023/12/26 02:18:35;;;;;;;3.90;3.50;;;18.50;59.40;;;;;;5088404;28;20184;-69
2023/12/26 02:21:00;;;;;;;3.42;3.08;;;18.50;59.40;;;;;;5083595;28;20209;-70
2023/12/26 02:23:30;;;;;;;3.95;3.20;;;18.50;59.40;;;;;;5086529;28;20212;-70
2023/12/26 02:25:57;;;;;;;3.80;2.92;;;18.50;59.40;;;;;;5096057;28;20212;-69
2023/12/26 02:28:25;;;;;;;3.20;2.72;;;18.50;59.40;;;;;;5081237;28;20185;-69
2023/12/26 02:30:52;;;;;;;3.80;2.80;;;18.50;59.40;;;;;;5095634;28;20185;-69
2023/12/26 02:33:18;;;;;;;3.00;2.70;;;18.50;59.40;;;;;;5102709;28;20249;-70
2023/12/26 02:35:45;;;;;;;3.72;3.15;;;18.50;59.40;;;;;;5079662;28;20245;-70
2023/12/26 02:38:11;;;;;;;3.58;3.03;;;18.50;59.40;;;;;;5096399;28;20198;-70
2023/12/26 02:40:36;;;;;;;3.65;3.08;;;18.50;59.40;;;;;;5102357;28;20205;-70
2023/12/26 02:43:02;;;;;;;4.63;2.72;;;18.50;59.40;;;;;;5102359;28;20204;-70
2023/12/26 02:45:28;;;;;;;3.33;3.03;;;18.50;59.40;;;;;;5086589;28;20169;-70
2023/12/26 02:47:54;;;;;;;3.25;2.88;;;18.50;60.00;;;;;;5108313;28;20218;-70
2023/12/26 02:50:20;;;;;;;2.85;2.55;;;18.50;59.40;;;;;;5080374;28;20711;-69
2023/12/26 02:52:45;;;;;;;3.65;2.95;;;18.50;59.40;;;;;;5122653;28;20208;-70
2023/12/26 02:55:11;;;;;;;3.33;2.88;;;18.50;59.40;;;;;;5081247;28;20189;-70
2023/12/26 02:57:37;;;;;;;3.03;2.75;;;18.50;59.40;;;;;;5098369;28;20188;-69
2023/12/26 03:00:05;;;;;;;3.55;2.75;;;18.50;59.40;;;;;;5078710;28;20220;-70
2023/12/26 03:02:31;;;;;;;2.85;2.55;;;18.50;59.40;;;;;;5090517;28;20300;-70
2023/12/26 03:04:57;;;;;;;3.25;2.50;;;18.50;60.00;;;;;;5116666;28;20271;-68
2023/12/26 03:07:23;;;;;;;2.50;2.30;;;18.50;59.40;;;;;;5095186;28;20205;-70
2023/12/26 03:09:48;;;;;;;2.92;2.60;;;18.50;59.40;;;;;;5089978;28;20181;-69
2023/12/26 03:12:14;;;;;;;3.17;2.67;;;18.50;59.40;;;;;;5108124;28;20222;-69
2023/12/26 03:14:40;;;;;;;2.70;2.50;;;18.50;59.40;;;;;;5086316;28;20190;-68
2023/12/26 03:17:06;;;;;;;3.03;2.50;;;18.50;59.40;;;;;;5090040;28;20295;-69
2023/12/26 03:19:31;;;;;;;2.28;2.08;;;18.50;59.40;;;;;;5091113;28;20213;-70
2023/12/26 03:21:57;;;;;;;2.97;2.40;;;18.40;59.30;;;;;;5058422;28;20194;-68
2023/12/26 03:24:24;;;;;;;3.38;2.65;;;18.40;59.30;;;;;;5076861;28;20192;-69
2023/12/26 03:26:50;;;;;;;2.53;2.33;;;18.40;59.30;;;;;;5102670;28;20574;-68
2023/12/26 03:29:18;;;;;;;3.30;2.63;;;18.50;59.40;;;;;;5076288;28;20181;-70
2023/12/26 03:31:45;;;;;;;2.40;2.13;;;18.40;59.10;;;;;;5103891;28;20215;-69
2023/12/26 03:34:12;;;;;;;2.60;2.30;;;18.50;59.30;;;;;;5087424;28;20172;-70
2023/12/26 03:36:45;;;;;;;2.40;2.20;;;18.40;59.30;;;;;;5083724;28;20613;-70
2023/12/26 03:39:11;;;;;;;2.50;2.30;;;18.40;59.20;;;;;;5097963;28;20207;-69
2023/12/26 03:41:37;;;;;;;2.50;2.25;;;18.50;59.30;;;;;;5085281;28;20215;-69
2023/12/26 03:44:04;;;;;;;2.78;2.40;;;18.40;59.20;;;;;;5075959;28;20185;-69
2023/12/26 03:46:30;;;;;;;2.58;2.38;;;18.50;59.30;;;;;;5093682;28;20231;-69
2023/12/26 03:48:55;;;;;;;2.42;2.22;;;18.40;59.30;;;;;;5098470;28;20177;-70
2023/12/26 03:51:21;;;;;;;2.42;2.22;;;18.40;59.20;;;;;;5076323;28;20200;-69
2023/12/26 03:53:47;;;;;;;2.88;2.50;;;18.50;59.30;;;;;;5104720;28;20230;-69
2023/12/26 03:56:13;;;;;;;2.78;2.00;;;18.40;59.30;;;;;;5086335;28;20223;-69
2023/12/26 03:58:39;;;;;;;3.20;2.60;;;18.40;59.30;;;;;;5103073;28;20181;-69
2023/12/26 04:01:04;;;;;;;2.65;2.25;;;18.40;59.30;;;;;;5103265;28;20204;-70
2023/12/26 04:03:32;;;;;;;2.58;2.28;;;18.40;59.20;;;;;;5089432;28;20204;-69
2023/12/26 04:05:57;;;;;;;2.30;2.10;;;18.40;59.20;;;;;;5084886;28;20263;-69
2023/12/26 04:08:23;;;;;;;2.35;2.05;;;18.50;59.30;;;;;;5085814;28;20271;-69
2023/12/26 04:10:49;;;;;;;2.40;2.20;;;18.40;59.20;;;;;;5097703;28;20192;-70
2023/12/26 04:13:15;;;;;;;2.17;1.98;;;18.40;59.20;;;;;;5084123;28;20235;-70
2023/12/26 04:15:41;;;;;;;2.67;2.10;;;18.40;59.30;;;;;;5106172;28;20188;-70
2023/12/26 04:18:07;;;;;;;2.53;2.10;;;18.50;59.30;;;;;;5092813;28;20185;-70
2023/12/26 04:20:33;;;;;;;2.35;2.15;;;18.40;59.20;;;;;;5097626;28;20216;-69
2023/12/26 04:22:59;;;;;;;2.22;2.00;;;18.50;59.30;;;;;;5075898;28;20235;-70
2023/12/26 04:25:25;;;;;;;1.90;1.70;;;18.50;59.30;;;;;;5101378;28;20205;-70
2023/12/26 04:27:51;;;;;;;2.42;1.92;;;18.40;59.20;;;;;;5104444;28;20267;-70
2023/12/26 04:30:18;;;;;;;2.05;1.85;;;18.40;59.30;;;;;;5104186;28;20187;-70
2023/12/26 04:32:43;;;;;;;1.73;1.63;;;18.50;59.30;;;;;;5082047;28;20204;-69
2023/12/26 04:35:09;;;;;;;2.38;2.03;;;18.50;59.30;;;;;;5081531;28;20188;-70
2023/12/26 04:37:36;;;;;;;1.65;1.55;;;18.50;59.30;;;;;;5083194;28;20192;-70
2023/12/26 04:40:02;;;;;;;1.80;1.70;;;18.50;59.40;;;;;;5122205;27;20211;-70
2023/12/26 04:42:28;;;;;;;2.05;1.90;;;18.50;59.30;;;;;;5113657;27;20201;-70
2023/12/26 04:44:54;;;;;;;2.00;1.73;;;18.50;59.40;;;;;;5096522;28;20184;-70
2023/12/26 04:47:20;;;;;;;1.77;1.67;;;18.50;59.40;;;;;;5073895;28;20192;-70
2023/12/26 04:49:46;;;;;;;2.13;1.75;;;18.50;59.40;;;;;;5073878;28;20276;-69
2023/12/26 04:52:11;;;;;;;1.45;1.35;;;18.50;59.40;;;;;;5092015;28;20219;-69
2023/12/26 04:54:37;;;;;;;1.80;1.70;;;18.50;59.40;;;;;;5097949;28;20192;-69
2023/12/26 04:57:03;;;;;;;1.73;1.48;;;18.50;59.40;;;;;;5075195;28;20188;-70
2023/12/26 04:59:30;;;;;;;2.00;1.80;;;18.50;59.40;;;;;;5092097;28;20234;-70
2023/12/26 05:01:55;;;;;;;1.67;1.58;;;18.40;59.30;;;;;;5092034;28;20193;-70
2023/12/26 05:04:21;;;;;;;1.92;1.50;;;18.50;59.40;;;;;;5075076;28;20184;-70
2023/12/26 05:06:47;;;;;;;2.05;1.85;;;18.50;59.40;;;;;;5077942;28;20177;-69
2023/12/26 05:09:15;;;;;;;2.00;1.50;;;18.40;59.30;;;;;;5083292;28;20241;-70
2023/12/26 05:11:41;;;;;;;1.70;1.60;;;18.50;59.40;;;;;;5092723;28;20219;-70
2023/12/26 05:14:07;;;;;;;1.52;1.42;;;18.40;59.90;;;;;;5111441;27;20279;-70
2023/12/26 05:16:42;;;;;;;1.50;1.40;;;18.40;59.30;;;;;;5095676;28;20181;-69
2023/12/26 05:19:09;;;;;;;1.92;1.73;;;18.50;59.40;;;;;;5077448;28;20177;-69
2023/12/26 05:21:36;;;;;;;1.70;1.60;;;18.50;59.40;;;;;;5078594;28;20213;-69
2023/12/26 05:24:04;;;;;;;1.70;1.60;;;18.40;59.30;;;;;;5074930;28;20207;-69
2023/12/26 05:26:37;;;;;;;1.63;1.52;;;18.50;59.40;;;;;;5095514;28;20272;-70
2023/12/26 05:29:03;;;;;;;2.50;1.85;;;18.40;59.30;;;;;;5092297;28;20233;-70
2023/12/26 05:31:29;;;;;;;1.67;1.55;;;18.50;59.40;;;;;;5095219;28;20192;-70
2023/12/26 05:33:55;;;;;;;1.60;1.50;;;18.50;59.40;;;;;;5107231;28;20185;-70
2023/12/26 05:36:22;;;;;;;1.90;1.65;;;18.40;59.30;;;;;;5082758;28;20194;-70
2023/12/26 05:38:48;;;;;;;1.40;1.30;;;18.50;59.40;;;;;;5096755;28;20181;-70
2023/12/26 05:41:14;;;;;;;2.00;1.80;;;18.50;60.00;;;;;;5079535;28;20243;-70
2023/12/26 05:43:40;;;;;;;2.53;1.60;;;18.40;59.30;;;;;;5097510;28;20204;-70
2023/12/26 05:46:06;;;;;;;1.48;1.15;;;18.40;59.30;;;;;;5094898;28;20674;-70
2023/12/26 05:48:33;;;;;;;2.05;1.40;;;18.50;59.40;;;;;;5074241;28;20189;-69
2023/12/26 05:50:59;;;;;;;1.65;1.40;;;18.40;59.30;;;;;;5102457;28;20185;-69
2023/12/26 05:53:29;;;;;;;1.83;1.40;;;18.40;59.30;;;;;;5081168;28;20227;-70
2023/12/26 05:55:56;;;;;;;2.33;1.38;;;18.40;59.30;;;;;;5100215;28;20319;-70
2023/12/26 05:58:25;;;;;;;2.30;1.35;;;18.50;59.40;;;;;;5098633;28;20280;-69
2023/12/26 06:00:52;;;;;;;2.20;1.60;;;18.40;59.30;;;;;;5092809;28;20208;-69
2023/12/26 06:03:18;;;;;;;1.60;1.50;;;18.50;59.40;;;;;;5115823;27;20219;-69
2023/12/26 06:05:46;;;;;;;1.35;1.23;;;18.40;59.40;;;;;;5105211;28;20188;-70
2023/12/26 06:08:15;;;;;;;1.88;1.40;;;18.50;59.40;;;;;;5096537;28;20186;-70
2023/12/26 06:10:41;;;;;;;1.52;1.33;;;18.40;59.30;;;;;;5095393;28;20271;-69
2023/12/26 06:13:07;;;;;;;2.08;1.50;;;18.40;59.30;;;;;;5075909;28;20406;-69
2023/12/26 06:15:33;;;;;;;1.35;1.25;;;18.40;59.30;;;;;;5086370;28;20185;-70
2023/12/26 06:17:59;;;;;;;1.30;1.20;;;18.40;59.30;;;;;;5093252;28;20180;-70
2023/12/26 06:20:27;;;;;;;1.48;1.20;;;18.50;59.40;;;;;;5093791;28;20209;-69
2023/12/26 06:22:54;;;;;;;1.65;1.40;;;18.50;59.40;;;;;;5087478;28;20217;-70
2023/12/26 06:25:19;;;;;;;1.63;1.25;;;18.40;59.30;;;;;;5093941;28;20173;-70
2023/12/26 06:27:46;;;;;;;2.03;1.35;;;18.40;59.30;;;;;;5091567;28;20660;-69
2023/12/26 06:30:12;;;;;;;1.92;1.33;;;18.40;59.30;;;;;;5104077;28;20180;-69
2023/12/26 06:32:38;;;;;;;1.50;1.40;;;18.40;59.30;;;;;;5090812;28;20193;-70
2023/12/26 06:35:05;;;;;;;1.45;1.30;;;18.50;59.40;;;;;;5096335;28;20188;-69
2023/12/26 06:37:31;;;;;;;1.67;1.20;;;18.40;59.30;;;;;;5089841;28;20168;-70
2023/12/26 06:39:57;;;;;;;1.40;1.27;;;18.40;59.30;;;;;;5078483;28;20210;-69
2023/12/26 06:42:23;;;;;;;1.40;1.20;;;18.40;59.30;;;;;;5076785;28;20196;-69
2023/12/26 06:44:48;;;;;;;1.25;1.10;;;18.50;59.40;;;;;;5079083;28;20206;-70
2023/12/26 06:47:15;;;;;;;1.55;1.00;;;18.40;59.30;;;;;;5076649;28;20168;-69
2023/12/26 06:49:45;;;;;;;2.05;1.13;;;18.40;59.30;;;;;;5090407;28;20173;-69
2023/12/26 06:52:14;;;;;;;1.38;1.25;;;18.40;59.30;;;;;;5093311;28;20244;-70
2023/12/26 06:54:41;;;;;;;1.20;1.10;;;18.40;59.30;;;;;;5084411;28;20223;-69
2023/12/26 06:57:15;;;;;;;1.20;1.10;;;18.40;59.30;;;;;;5099884;28;20627;-70
2023/12/26 06:59:48;;;;;;;1.17;1.08;;;18.40;59.30;;;;;;5094238;28;20200;-70
2023/12/26 07:02:17;;;;;;;1.42;1.33;;;18.40;59.30;;;;;;5101577;28;20196;-70
2023/12/26 07:04:46;;;;;;;1.40;1.30;;;18.40;59.30;;;;;;5085070;28;20280;-69
2023/12/26 07:07:12;;;;;;;1.63;1.40;;;18.40;59.30;;;;;;5094632;28;20169;-70
2023/12/26 07:09:38;;;;;;;1.40;1.15;;;18.40;59.30;;;;;;5111401;28;20185;-70
2023/12/26 07:12:05;;;;;;;1.35;1.25;;;18.40;59.30;;;;;;5096187;28;20209;-70
2023/12/26 07:14:30;;;;;;;1.08;1.00;;;18.40;59.30;;;;;;5094208;28;20270;-69
2023/12/26 07:16:57;;;;;;;1.10;1.00;;;18.40;59.30;;;;;;5099327;28;20208;-69
2023/12/26 07:19:23;;;;;;;1.13;1.00;;;18.40;59.30;;;;;;5095636;28;20588;-70
2023/12/26 07:21:49;;;;;;;1.10;1.00;;;18.40;59.30;;;;;;5100322;28;20307;-69
2023/12/26 07:24:15;;;;;;;1.17;1.08;;;18.40;59.30;;;;;;5100500;28;20204;-69
2023/12/26 07:26:41;;;;;;;1.27;1.17;;;18.40;59.30;;;;;;5090657;28;20177;-70
2023/12/26 07:29:07;;;;;;;1.33;1.00;;;18.40;59.30;;;;;;5095898;28;20258;-69
2023/12/26 07:31:32;;;;;;;1.42;1.10;;;18.40;59.30;;;;;;5102388;28;20204;-70
2023/12/26 07:34:00;;;;;;;1.75;1.10;;;18.40;59.30;;;;;;5110030;28;20188;-70
2023/12/26 07:36:26;;;;;;;2.08;1.30;;;18.50;59.40;;;;;;5115192;27;20728;-69
2023/12/26 07:38:51;;;;;;;1.42;1.27;;;18.40;59.30;;;;;;5077595;28;20177;-70
2023/12/26 07:41:17;;;;;;;1.63;1.02;;;18.40;59.30;;;;;;5099081;28;20566;-69
2023/12/26 07:43:45;;;;;;;1.02;0.93;;;18.40;59.30;;;;;;5079023;28;20169;-69
2023/12/26 07:46:11;;;;;;;1.50;1.17;;;18.40;59.30;;;;;;5081989;28;20177;-70
2023/12/26 07:48:37;;;;;;;1.27;1.15;;;18.40;59.30;;;;;;5099675;28;20177;-69
2023/12/26 07:51:03;;;;;;;1.17;0.90;;;18.50;59.40;;;;;;5092712;28;20187;-70
2023/12/26 07:53:29;;;;;;;1.30;1.10;;;18.40;59.30;;;;;;5076984;28;20265;-69
2023/12/26 07:55:54;;;;;;;1.02;1.00;;;18.50;59.40;;;;;;5081195;28;20184;-69
2023/12/26 07:58:20;;;;;;;1.00;0.90;;;18.50;59.40;;;;;;5119688;27;20259;-69
2023/12/26 08:00:46;;;;;;;1.33;1.15;;;18.40;59.30;;;;;;5101415;28;20200;-69
2023/12/26 08:03:15;;;;;;;1.52;1.35;;;18.40;59.30;;;;;;5086858;28;20204;-69
2023/12/26 08:05:44;;;;;;;1.27;1.05;;;18.40;59.30;;;;;;5110902;28;20184;-69
2023/12/26 08:08:11;;;;;;;2.97;1.30;;;18.40;59.30;;;;;;5096549;28;20220;-69
2023/12/26 08:10:37;;;;;;;1.08;0.85;;;18.40;59.30;;;;;;5094427;28;20679;-70
2023/12/26 08:13:04;;;;;;;1.17;1.10;;;18.40;59.30;;;;;;5098784;28;20273;-69
2023/12/26 08:15:30;;;;;;;1.65;0.95;;;18.40;59.30;;;;;;5095638;28;20188;-69
2023/12/26 08:17:56;;;;;;;1.50;1.17;;;18.40;59.30;;;;;;5078193;28;20184;-69
2023/12/26 08:20:25;;;;;;;1.25;1.10;;;18.40;59.30;;;;;;5074652;28;20224;-69
2023/12/26 08:22:52;;;;;;;1.55;1.05;;;18.40;59.30;;;;;;5090768;28;20208;-70
2023/12/26 08:25:18;;;;;;;1.23;0.90;;;18.50;59.40;;;;;;5112232;27;20195;-69
2023/12/26 08:27:43;;;;;;;1.40;1.13;;;18.50;59.40;;;;;;5093020;28;20375;-70
2023/12/26 08:30:10;;;;;;;2.08;0.90;;;18.50;59.40;;;;;;5094822;28;20191;-69
2023/12/26 08:32:36;;;;;;;1.13;1.00;;;18.50;59.40;;;;;;5096215;28;20216;-70
2023/12/26 08:35:02;;;;;;;1.02;0.93;;;18.50;59.40;;;;;;5092540;28;20193;-70
2023/12/26 08:37:27;;;;;;;1.10;1.00;;;18.40;59.30;;;;;;5086882;28;20177;-69
2023/12/26 08:39:53;;;;;;;1.30;1.00;;;18.40;59.30;;;;;;5090969;28;20204;-70
2023/12/26 08:42:19;;;;;;;1.33;0.95;;;18.50;59.40;;;;;;5076593;28;20216;-70
2023/12/26 08:44:45;;;;;;;1.10;1.00;;;18.40;59.30;;;;;;5096098;28;20169;-69
2023/12/26 08:47:11;;;;;;;1.38;1.20;;;18.50;59.40;;;;;;5075476;28;20185;-69
2023/12/26 08:49:37;;;;;;;1.20;1.10;;;18.40;59.30;;;;;;5082681;28;20173;-70
2023/12/26 08:52:03;;;;;;;1.33;1.08;;;18.50;59.40;;;;;;5094138;28;20262;-69
2023/12/26 08:54:28;;;;;;;1.30;1.20;;;18.50;59.40;;;;;;5091062;28;20180;-69
2023/12/26 08:56:54;;;;;;;1.30;1.20;;;18.50;59.40;;;;;;5084001;28;20177;-69
2023/12/26 08:59:20;;;;;;;0.90;0.88;;;18.50;59.40;;;;;;5094265;28;20225;-69
2023/12/26 09:01:46;;;;;;;2.15;0.90;;;18.50;59.40;;;;;;5090682;28;20212;-69
2023/12/26 09:04:12;;;;;;;1.20;1.10;;;18.50;59.40;;;;;;5084247;28;20189;-69
2023/12/26 09:06:38;;;;;;;1.23;1.13;;;18.50;59.40;;;;;;5092958;28;20184;-69
2023/12/26 09:09:04;;;;;;;1.75;0.80;;;18.50;59.40;;;;;;5105974;28;20402;-69
2023/12/26 09:11:29;;;;;;;1.00;0.90;;;18.50;59.40;;;;;;5074451;28;20235;-69
2023/12/26 09:13:55;;;;;;;0.90;0.90;;;18.50;59.40;;;;;;5106467;28;20272;-69
2023/12/26 09:16:21;;;;;;;1.00;1.00;;;18.50;59.40;;;;;;5094113;28;20184;-70
2023/12/26 09:18:47;;;;;;;1.40;1.00;;;18.50;59.40;;;;;;5091547;28;20233;-69
2023/12/26 09:21:13;;;;;;;1.10;1.00;;;18.50;59.40;;;;;;5091133;28;20202;-68
2023/12/26 09:23:40;;;;;;;1.40;1.30;;;18.50;59.40;;;;;;5092794;28;20213;-69
2023/12/26 09:26:07;;;;;;;1.30;1.10;;;18.50;60.00;;;;;;5090716;28;20217;-70
2023/12/26 09:28:33;;;;;;;1.25;1.05;;;18.50;59.40;;;;;;5092310;28;20185;-69
2023/12/26 09:30:59;;;;;;;1.40;1.10;;;18.50;59.40;;;;;;5091048;28;20185;-69
2023/12/26 09:33:25;;;;;;;1.38;0.90;;;18.50;59.40;;;;;;5093158;28;20213;-69
2023/12/26 09:35:51;;;;;;;2.55;1.10;;;18.50;59.40;;;;;;5091262;28;20223;-70
2023/12/26 09:38:17;;;;;;;0.98;0.90;;;18.50;59.40;;;;;;5085616;28;20597;-70
2023/12/26 09:40:43;;;;;;;1.30;1.20;;;18.60;59.50;;;;;;5076481;28;20213;-70
2023/12/26 09:43:09;;;;;;;1.17;1.08;;;18.50;59.40;;;;;;5076143;28;20209;-70
2023/12/26 09:45:35;;;;;;;1.55;1.08;;;18.50;59.40;;;;;;5099859;28;20181;-70
2023/12/26 09:48:00;;;;;;;1.08;0.98;;;18.50;59.40;;;;;;5091806;28;20276;-70
2023/12/26 09:50:27;;;;;;;2.25;1.08;;;18.50;59.40;;;;;;5091618;28;20271;-70
2023/12/26 09:53:08;;;;;;;0.93;0.90;;;18.60;59.50;;;;;;5091456;28;20272;-70
2023/12/26 09:55:34;;;;;;;1.27;1.00;;;18.50;59.40;;;;;;5083879;28;20185;-69
2023/12/26 09:58:02;;;;;;;2.25;1.15;;;18.60;59.50;;;;;;5091093;28;20577;-69
2023/12/26 10:00:29;;;;;;;1.00;1.00;;;18.60;59.50;;;;;;5083780;28;20208;-69
2023/12/26 10:02:55;;;;;;;1.00;1.00;;;18.60;59.50;;;;;;5091278;28;20209;-69
2023/12/26 10:05:25;;;;;;;0.98;0.90;;;18.50;59.40;;;;;;5091186;28;20184;-69
2023/12/26 10:07:51;;;;;;;1.00;0.90;;;18.60;59.50;;;;;;5092189;28;20173;-69
2023/12/26 10:10:21;;;;;;;2.72;1.30;;;18.60;59.50;;;;;;5090740;28;20188;-69
2023/12/26 10:12:50;;;;;;;1.88;1.48;;;18.60;59.50;;;;;;5104765;28;20208;-69
2023/12/26 10:15:17;;;;;;;2.05;1.33;;;18.50;59.40;;;;;;5101163;28;20193;-70
2023/12/26 10:17:43;;;;;;;1.08;0.98;;;18.60;59.50;;;;;;5105733;28;20248;-70
2023/12/26 10:20:18;;;;;;;1.58;1.00;;;18.60;59.50;;;;;;5081734;28;20200;-69
2023/12/26 10:22:45;;;;;;;1.30;1.20;;;18.60;59.50;;;;;;5082249;28;20196;-70
2023/12/26 10:25:14;;;;;;;1.40;1.10;;;18.60;59.50;;;;;;5107017;28;20184;-69
2023/12/26 10:27:52;;;;;;;1.52;1.02;;;18.60;59.50;;;;;;5090456;28;20189;-69
2023/12/26 10:30:18;;;;;;;1.02;0.90;;;18.60;59.50;;;;;;5107057;28;20376;-69
2023/12/26 10:32:43;;;;;;;1.75;0.90;;;18.60;59.50;;;;;;5098929;28;20209;-69
2023/12/26 10:35:14;;;;;;;0.80;0.80;;;18.60;59.50;;;;;;5091166;28;20200;-69
2023/12/26 10:37:40;;;;;;;1.95;1.15;;;18.60;59.50;;;;;;5098635;28;20264;-70
2023/12/26 10:40:08;;;;;;;1.17;1.02;;;18.60;59.50;;;;;;5090681;28;20208;-70
2023/12/26 10:42:37;;;;;;;1.17;1.02;;;18.60;60.10;;;;;;5115011;28;20207;-70
2023/12/26 10:45:05;;;;;;;1.35;1.08;;;18.60;59.50;;;;;;5098441;28;20224;-69
2023/12/26 10:47:33;;;;;;;1.20;1.05;;;18.60;59.50;;;;;;5115483;28;20180;-70
2023/12/26 10:50:01;;;;;;;1.88;1.00;;;18.60;59.50;;;;;;5090308;28;20199;-70
2023/12/26 10:52:29;;;;;;;1.60;1.10;;;18.60;59.50;;;;;;5073174;28;20771;-70
2023/12/26 10:54:59;;;;;;;1.48;1.15;;;18.60;59.50;;;;;;5090600;28;20216;-70
2023/12/26 10:57:29;;;;;;;1.40;1.23;;;18.60;59.50;;;;;;5088825;28;20189;-70
2023/12/26 11:00:48;;;;;;;1.60;1.02;;;18.60;59.50;;;;;;5073457;28;20219;-68
2023/12/26 13:52:05;;;;;;;1.90;0.90;;;18.80;60.50;;;;;;5095373;28;20195;-68
2023/12/26 13:55:27;;;;;;;1.35;1.00;;;18.70;60.40;;;;;;5077791;28;20558;-68
2023/12/26 13:58:49;;;;;;;1.65;0.80;;;18.70;60.50;;;;;;5078863;28;20184;-69
2023/12/26 14:02:11;;;;;;;0.98;0.98;;;18.70;60.50;;;;;;5077247;28;20236;-68
2023/12/26 14:05:34;;;;;;;0.85;0.85;;;18.70;60.50;;;;;;5098772;28;20189;-68
2023/12/26 14:08:56;;;;;;;1.75;1.10;;;18.70;60.50;;;;;;5096981;28;20180;-68
2023/12/26 14:12:19;;;;;;;1.05;0.90;;;18.70;60.50;;;;;;5074794;28;20279;-68
2023/12/26 14:15:41;;;;;;;1.17;0.80;;;18.70;60.50;;;;;;5089609;28;20672;-69
2023/12/26 14:19:03;;;;;;;1.15;0.90;;;18.70;60.60;;;;;;5081059;28;20188;-68
2023/12/26 14:22:25;;;;;;;2.33;1.00;;;18.70;60.60;;;;;;5075308;28;20234;-67
2023/12/26 14:25:47;;;;;;;1.80;1.00;;;18.70;60.60;;;;;;5095648;28;20211;-68
2023/12/26 14:29:10;;;;;;;1.48;0.73;;;18.70;60.60;;;;;;5080376;28;20218;-68
2023/12/26 14:32:32;;;;;;;0.90;0.90;;;18.70;60.50;;;;;;5075646;28;20213;-68
2023/12/26 14:35:54;;;;;;;2.08;0.88;;;18.70;60.60;;;;;;5098714;28;20188;-68
2023/12/26 14:39:16;;;;;;;1.15;0.77;;;18.70;60.60;;;;;;5096489;28;20188;-68
2023/12/26 14:42:38;;;;;;;3.42;1.00;;;18.70;60.60;;;;;;5115313;28;20248;-68
2023/12/26 14:46:00;;;;;;;1.08;0.85;;;18.70;60.60;;;;;;5075172;28;20223;-68
2023/12/26 14:49:22;;;;;;;1.33;0.98;;;18.70;60.60;;;;;;5078034;28;20224;-68
2023/12/26 14:52:45;;;;;;;0.82;0.80;;;18.70;60.60;;;;;;5096440;28;20209;-68
2023/12/26 14:56:07;;;;;;;0.82;0.70;;;18.70;60.60;;;;;;5071437;28;20215;-68
2023/12/26 14:59:29;;;;;;;1.10;0.80;;;18.70;60.60;;;;;;5095796;28;20265;-69
2023/12/26 15:02:01;;;;;;;0.63;0.60;;;18.70;60.60;;;;;;5081041;28;20216;-68
2023/12/26 15:04:28;;;;;;;0.75;0.75;;;18.70;60.70;;;;;;5108093;28;20208;-68
2023/12/26 15:06:58;;;;;;;0.70;0.70;;;18.70;60.70;;;;;;5084342;28;20169;-69
2023/12/26 15:09:24;;;;;;;0.75;0.75;;;18.70;60.60;;;;;;5086843;28;20200;-68
2023/12/26 15:11:50;;;;;;;0.60;0.60;;;18.60;60.50;;;;;;5106680;28;20302;-68
2023/12/26 15:14:17;;;;;;;1.40;0.90;;;18.60;60.50;;;;;;5083536;28;20330;-68
2023/12/26 15:16:43;;;;;;;0.70;0.60;;;18.60;60.60;;;;;;5101935;28;20214;-68
2023/12/26 15:19:08;;;;;;;0.80;0.80;;;18.70;60.70;;;;;;5077062;28;20715;-68
2023/12/26 15:21:42;;;;;;;1.20;0.93;;;18.60;60.60;;;;;;5089347;28;20220;-69
2023/12/26 15:24:12;;;;;;;0.70;0.70;;;18.60;60.60;;;;;;5102537;28;20194;-68
2023/12/26 15:26:38;;;;;;;0.98;0.85;;;18.60;60.60;;;;;;5089529;28;20181;-68
2023/12/26 15:29:05;;;;;;;1.00;0.90;;;18.60;60.60;;;;;;5102337;28;20188;-68
2023/12/26 15:31:32;;;;;;;1.63;1.20;;;18.60;60.60;;;;;;5103266;28;20192;-68
2023/12/26 15:33:58;;;;;;;1.20;1.05;;;18.60;60.60;;;;;;5092893;28;20207;-69
2023/12/26 15:36:25;;;;;;;0.90;0.70;;;18.70;60.70;;;;;;5102520;28;20192;-68
2023/12/26 15:38:54;;;;;;;0.70;0.70;;;18.70;60.70;;;;;;5101134;28;20630;-68
2023/12/26 15:41:23;;;;;;;0.75;0.75;;;18.60;61.30;;;;;;5095565;28;20225;-68
2023/12/26 15:43:52;;;;;;;1.33;0.70;;;18.70;60.70;;;;;;5093551;28;20189;-68
2023/12/26 15:46:23;;;;;;;0.70;0.70;;;18.60;60.50;;;;;;5085093;28;20185;-68
2023/12/26 15:48:51;;;;;;;0.70;0.70;;;18.70;60.60;;;;;;5114698;27;20274;-68
2023/12/26 15:51:21;;;;;;;1.35;0.90;;;18.70;60.70;;;;;;5093280;28;20205;-69
2023/12/26 15:53:49;;;;;;;0.82;0.82;;;18.70;60.70;;;;;;5082138;28;20193;-68